createdAt,value
2019-04-01T00:00:56.460Z,33.20
2019-04-01T00:03:00.262Z,30.57
2019-04-01T00:05:04.309Z,35.73
2019-04-01T00:07:08.092Z,38.17
2019-04-01T00:09:11.907Z,32.80
2019-04-01T00:11:15.638Z,40.03
2019-04-01T00:13:19.509Z,30.30
2019-04-01T00:15:23.275Z,31.33
2019-04-01T00:17:26.974Z,32.73
2019-04-01T00:19:30.643Z,34.33
2019-04-01T00:21:34.323Z,27.70
2019-04-01T00:23:37.995Z,33.77
2019-04-01T00:25:41.718Z,31.97
2019-04-01T00:27:45.380Z,33.23
2019-04-01T00:29:49.220Z,35.67
2019-04-01T00:31:52.990Z,36.20
2019-04-01T00:33:57.854Z,34.07
2019-04-01T00:36:01.558Z,29.63
2019-04-01T00:38:05.313Z,38.13
2019-04-01T00:40:09.477Z,33.70
2019-04-01T00:42:29.910Z,29.87
2019-04-01T00:44:33.660Z,33.77
2019-04-01T00:46:37.327Z,36.13
2019-04-01T00:48:41.050Z,30.27
2019-04-01T00:50:44.826Z,29.70
2019-04-01T00:52:48.598Z,32.40
2019-04-01T00:54:52.184Z,34.47
2019-04-01T00:56:56.877Z,31.17
2019-04-01T00:59:00.528Z,31.20
2019-04-01T01:01:04.708Z,32.17
2019-04-01T01:03:08.382Z,33.23
2019-04-01T01:05:12.188Z,31.87
2019-04-01T01:07:15.987Z,36.87
2019-04-01T01:09:19.635Z,35.37
2019-04-01T01:11:23.470Z,29.03
2019-04-01T01:13:27.132Z,31.07
2019-04-01T01:15:30.790Z,30.60
2019-04-01T01:17:34.506Z,32.70
2019-04-01T01:19:38.169Z,33.17
2019-04-01T01:21:41.848Z,36.23
2019-04-01T01:23:45.443Z,31.23
2019-04-01T01:25:49.105Z,30.97
2019-04-01T01:27:52.835Z,33.43
2019-04-01T01:29:56.509Z,37.40
2019-04-01T01:32:00.263Z,31.63
2019-04-01T01:34:03.933Z,33.60
2019-04-01T01:36:07.567Z,31.33
2019-04-01T01:38:11.236Z,39.63
2019-04-01T01:40:14.987Z,35.97
2019-04-01T01:42:18.632Z,38.83
2019-04-01T01:44:22.284Z,44.80
2019-04-01T01:46:25.962Z,39.10
2019-04-01T01:48:29.689Z,39.30
2019-04-01T01:50:33.346Z,45.33
2019-04-01T01:52:37.083Z,40.13
2019-04-01T01:54:40.666Z,42.07
2019-04-01T01:56:44.435Z,43.30
2019-04-01T01:58:48.182Z,36.23
2019-04-01T02:00:53.554Z,49.70
2019-04-01T02:02:57.248Z,40.30
2019-04-01T02:05:00.855Z,37.17
2019-04-01T02:07:04.616Z,37.63
2019-04-01T02:09:08.375Z,39.20
2019-04-01T02:11:12.100Z,32.47
2019-04-01T02:13:15.730Z,35.40
2019-04-01T02:15:19.528Z,33.50
2019-04-01T02:17:23.154Z,34.63
2019-04-01T02:19:26.752Z,38.00
2019-04-01T02:21:30.382Z,42.13
2019-04-01T02:23:34.014Z,37.43
2019-04-01T02:25:37.610Z,38.07
2019-04-01T02:27:41.319Z,35.20
2019-04-01T02:29:45.897Z,38.90
2019-04-01T02:31:49.569Z,31.53
2019-04-01T02:33:53.353Z,35.60
2019-04-01T02:35:57.083Z,34.80
2019-04-01T02:38:00.812Z,36.17
2019-04-01T02:40:05.915Z,38.40
2019-04-01T02:42:09.700Z,34.97
2019-04-01T02:44:13.400Z,37.30
2019-04-01T02:46:17.142Z,33.67
2019-04-01T02:48:20.858Z,40.33
2019-04-01T02:50:24.512Z,47.80
2019-04-01T02:52:28.315Z,39.17
2019-04-01T02:54:31.919Z,34.77
2019-04-01T02:56:35.603Z,33.87
2019-04-01T02:58:39.406Z,32.97
2019-04-01T03:00:43.145Z,36.07
2019-04-01T03:02:46.951Z,34.60
2019-04-01T03:04:50.777Z,38.40
2019-04-01T03:06:54.492Z,42.70
2019-04-01T03:08:58.258Z,41.63
2019-04-01T03:11:01.858Z,38.60
2019-04-01T03:13:05.633Z,40.67
2019-04-01T03:15:09.462Z,40.00
2019-04-01T03:17:13.266Z,37.50
2019-04-01T03:19:17.036Z,38.03
2019-04-01T03:21:20.843Z,41.00
2019-04-01T03:23:24.727Z,35.53
2019-04-01T03:25:28.478Z,35.37
2019-04-01T03:27:32.123Z,42.23
2019-04-01T03:29:35.982Z,36.23
2019-04-01T03:31:39.654Z,41.00
2019-04-01T03:33:43.424Z,44.77
2019-04-01T03:35:47.090Z,39.50
2019-04-01T03:37:50.752Z,42.00
2019-04-01T03:39:54.627Z,42.60
2019-04-01T03:41:58.351Z,40.30
2019-04-01T03:44:01.987Z,41.30
2019-04-01T03:46:05.718Z,45.50
2019-04-01T03:48:09.501Z,42.97
2019-04-01T03:50:13.258Z,36.00
2019-04-01T03:52:16.922Z,39.17
2019-04-01T03:54:21.921Z,40.63
2019-04-01T03:56:25.578Z,38.13
2019-04-01T03:58:29.344Z,35.37
2019-04-01T04:00:33.093Z,37.70
2019-04-01T04:02:36.831Z,37.67
2019-04-01T04:04:40.663Z,43.43
2019-04-01T04:06:44.331Z,43.27
2019-04-01T04:08:47.957Z,38.60
2019-04-01T04:10:51.643Z,40.83
2019-04-01T04:12:55.293Z,41.80
2019-04-01T04:14:58.927Z,44.43
2019-04-01T04:17:02.597Z,31.93
2019-04-01T04:19:06.395Z,43.40
2019-04-01T04:21:11.144Z,38.30
2019-04-01T04:23:15.005Z,36.50
2019-04-01T04:25:18.904Z,42.20
2019-04-01T04:27:22.870Z,42.77
2019-04-01T04:29:26.929Z,43.17
2019-04-01T04:31:30.536Z,44.20
2019-04-01T04:33:35.204Z,38.90
2019-04-01T04:35:38.842Z,42.10
2019-04-01T04:37:42.641Z,47.70
2019-04-01T04:39:46.387Z,38.97
2019-04-01T04:41:50.050Z,37.37
2019-04-01T04:43:53.705Z,39.33
2019-04-01T04:45:57.395Z,49.17
2019-04-01T04:48:01.009Z,41.67
2019-04-01T04:50:05.523Z,42.60
2019-04-01T04:52:09.239Z,35.30
2019-04-01T04:54:12.912Z,41.50
2019-04-01T04:56:16.689Z,35.93
2019-04-01T04:58:20.431Z,37.73
2019-04-01T05:00:24.104Z,50.90
2019-04-01T05:02:27.834Z,41.37
2019-04-01T05:04:31.531Z,41.73
2019-04-01T05:06:35.265Z,41.70
2019-04-01T05:08:39.039Z,40.03
2019-04-01T05:10:42.735Z,42.20
2019-04-01T05:12:46.472Z,45.00
2019-04-01T05:14:50.458Z,38.00
2019-04-01T05:16:54.492Z,44.27
2019-04-01T05:18:58.607Z,43.17
2019-04-01T05:21:03.137Z,46.57
2019-04-01T05:23:08.927Z,41.27
2019-04-01T05:25:12.882Z,36.03
2019-04-01T05:27:20.256Z,48.30
2019-04-01T05:29:25.904Z,41.10
2019-04-01T05:31:31.148Z,41.33
2019-04-01T05:33:36.719Z,44.60
2019-04-01T05:35:40.793Z,43.73
2019-04-01T05:37:45.844Z,41.40
2019-04-01T05:39:50.075Z,44.80
2019-04-01T05:41:53.986Z,40.10
2019-04-01T05:43:57.899Z,47.27
2019-04-01T05:46:01.736Z,41.70
2019-04-01T05:48:05.534Z,45.40
2019-04-01T05:50:09.384Z,44.17
2019-04-01T05:52:13.484Z,47.67
2019-04-01T05:54:17.458Z,48.17
2019-04-01T05:56:21.455Z,50.40
2019-04-01T05:58:26.520Z,47.43
2019-04-01T06:00:35.065Z,50.20
2019-04-01T06:02:38.917Z,44.77
2019-04-01T06:04:44.260Z,44.10
2019-04-01T06:06:49.014Z,43.87
2019-04-01T06:08:53.014Z,40.70
2019-04-01T06:10:56.991Z,41.07
2019-04-01T06:13:00.897Z,41.70
2019-04-01T06:15:06.654Z,36.10
2019-04-01T06:17:10.710Z,42.57
2019-04-01T06:19:15.607Z,44.70
2019-04-01T06:21:21.164Z,39.77
2019-04-01T06:23:24.963Z,41.73
2019-04-01T06:25:28.769Z,38.40
2019-04-01T06:27:33.026Z,40.70
2019-04-01T06:29:37.312Z,41.67
2019-04-01T06:31:41.235Z,40.03
2019-04-01T06:33:45.148Z,39.80
2019-04-01T06:35:49.183Z,32.00
2019-04-01T06:37:53.125Z,38.17
2019-04-01T06:39:58.041Z,38.40
2019-04-01T06:42:02.042Z,42.73
2019-04-01T06:44:06.087Z,39.37
2019-04-01T06:46:11.105Z,36.30
2019-04-01T06:48:15.307Z,37.50
2019-04-01T06:50:19.201Z,35.47
2019-04-01T06:52:23.199Z,34.43
2019-04-01T06:54:27.631Z,39.20
2019-04-01T06:56:31.516Z,35.67
2019-04-01T06:58:36.009Z,32.00
2019-04-01T07:00:40.038Z,32.57
2019-04-01T07:02:44.292Z,29.40
2019-04-01T07:04:49.289Z,29.27
2019-04-01T07:07:00.679Z,33.13
2019-04-01T07:09:06.724Z,34.27
2019-04-01T07:11:10.975Z,33.00
2019-04-01T07:13:16.367Z,32.33
2019-04-01T07:15:20.597Z,28.23
2019-04-01T07:17:24.660Z,32.97
2019-04-01T07:19:28.553Z,30.60
2019-04-01T07:21:33.809Z,28.70
2019-04-01T07:23:37.834Z,30.40
2019-04-01T07:25:42.876Z,26.90
2019-04-01T07:27:47.216Z,31.20
2019-04-01T07:29:51.154Z,32.13
2019-04-01T07:31:55.585Z,35.53
2019-04-01T07:34:00.040Z,36.00
2019-04-01T07:36:04.392Z,33.80
2019-04-01T07:38:08.546Z,42.40
2019-04-01T07:40:14.135Z,29.30
2019-04-01T07:42:18.372Z,37.30
2019-04-01T07:44:22.601Z,37.73
2019-04-01T07:46:27.031Z,33.87
2019-04-01T07:48:31.773Z,33.10
2019-04-01T07:50:36.056Z,33.53
2019-04-01T07:52:40.298Z,33.67
2019-04-01T07:54:44.235Z,31.50
2019-04-01T07:56:48.218Z,32.83
2019-04-01T07:58:52.149Z,40.40
2019-04-01T08:00:56.256Z,32.00
2019-04-01T08:03:00.249Z,29.50
2019-04-01T08:05:04.583Z,33.07
2019-04-01T08:07:08.686Z,34.20
2019-04-01T08:09:12.686Z,32.23
2019-04-01T08:11:16.549Z,33.63
2019-04-01T08:13:20.555Z,31.83
2019-04-01T08:15:43.829Z,34.70
2019-04-01T08:17:47.664Z,41.97
2019-04-01T08:19:51.867Z,31.63
2019-04-01T08:21:55.884Z,33.50
2019-04-01T08:23:59.875Z,32.70
2019-04-01T08:26:04.232Z,30.97
2019-04-01T08:28:08.499Z,34.23
2019-04-01T08:30:12.621Z,31.87
2019-04-01T08:32:16.726Z,30.87
2019-04-01T08:34:20.713Z,31.73
2019-04-01T08:36:24.928Z,34.80
2019-04-01T08:38:29.151Z,28.80
2019-04-01T08:40:33.054Z,45.30
2019-04-01T08:42:37.051Z,33.70
2019-04-01T08:44:41.080Z,30.60
2019-04-01T08:46:45.143Z,30.83
2019-04-01T08:48:49.688Z,34.00
2019-04-01T08:50:53.894Z,31.47
2019-04-01T08:52:57.915Z,28.90
2019-04-01T08:55:01.835Z,36.10
2019-04-01T08:57:05.770Z,30.57
2019-04-01T08:59:09.977Z,33.20
2019-04-01T09:01:13.914Z,31.43
2019-04-01T09:03:17.817Z,34.60
2019-04-01T09:05:21.901Z,33.53
2019-04-01T09:07:26.777Z,34.03
2019-04-01T09:09:32.102Z,31.53
2019-04-01T09:11:38.403Z,31.57
2019-04-01T09:13:42.355Z,29.57
2019-04-01T09:15:46.450Z,31.53
2019-04-01T09:17:50.589Z,30.90
2019-04-01T09:19:54.567Z,32.10
2019-04-01T09:21:59.702Z,30.47
2019-04-01T09:24:04.035Z,34.23
2019-04-01T09:26:08.161Z,38.33
2019-04-01T09:28:12.227Z,37.50
2019-04-01T09:30:18.740Z,30.73
2019-04-01T09:32:22.532Z,32.07
2019-04-01T09:34:26.706Z,31.20
2019-04-01T09:36:30.749Z,40.20
2019-04-01T09:38:34.822Z,32.83
2019-04-01T09:40:38.940Z,34.60
2019-04-01T09:42:43.134Z,39.03
2019-04-01T09:44:47.139Z,34.57
2019-04-01T09:46:51.300Z,34.43
2019-04-01T09:48:55.929Z,47.90
2019-04-01T09:51:00.195Z,35.70
2019-04-01T09:53:04.233Z,36.90
2019-04-01T09:55:09.458Z,39.70
2019-04-01T09:57:17.742Z,34.53
2019-04-01T09:59:19.000Z,33.97
2019-04-01T10:01:22.984Z,36.00
2019-04-01T10:03:27.043Z,36.13
2019-04-01T10:05:31.035Z,35.20
2019-04-01T10:07:35.024Z,30.17
2019-04-01T10:09:38.956Z,34.63
2019-04-01T10:11:42.842Z,34.50
2019-04-01T10:13:46.835Z,41.13
2019-04-01T10:15:50.971Z,32.60
2019-04-01T10:17:54.933Z,38.53
2019-04-01T10:20:00.844Z,34.80
2019-04-01T10:22:04.558Z,41.95
2019-04-01T10:24:08.466Z,36.17
2019-04-01T10:26:12.567Z,37.60
2019-04-01T10:28:16.582Z,35.70
2019-04-01T10:30:21.276Z,40.27
2019-04-01T10:32:25.218Z,37.40
2019-04-01T10:34:29.223Z,37.13
2019-04-01T10:36:33.417Z,30.63
2019-04-01T10:38:37.277Z,31.30
2019-04-01T10:40:41.301Z,34.80
2019-04-01T10:42:45.278Z,32.30
2019-04-01T10:44:49.047Z,36.23
2019-04-01T10:46:53.082Z,36.60
2019-04-01T10:48:57.254Z,35.17
2019-04-01T10:51:02.296Z,35.73
2019-04-01T10:53:06.387Z,29.20
2019-04-01T10:55:10.797Z,34.37
2019-04-01T10:57:15.068Z,35.53
2019-04-01T10:59:18.978Z,32.80
2019-04-01T11:01:23.063Z,34.70
2019-04-01T11:03:28.679Z,32.63
2019-04-01T11:05:32.727Z,35.80
2019-04-01T11:07:37.190Z,36.50
2019-04-01T11:09:41.238Z,31.20
2019-04-01T11:11:47.346Z,37.47
2019-04-01T11:13:51.995Z,30.27
2019-04-01T11:15:58.250Z,33.03
2019-04-01T11:18:02.209Z,35.63
2019-04-01T11:20:08.053Z,32.70
2019-04-01T11:22:12.450Z,33.57
2019-04-01T11:24:16.379Z,40.97
2019-04-01T11:26:20.263Z,34.80
2019-04-01T11:28:24.293Z,33.60
2019-04-01T11:30:28.262Z,34.03
2019-04-01T11:32:33.336Z,30.80
2019-04-01T11:34:37.386Z,33.53
2019-04-01T11:36:42.214Z,33.57
2019-04-01T11:38:47.196Z,33.93
2019-04-01T11:40:51.053Z,43.70
2019-04-01T11:42:55.078Z,33.50
2019-04-01T11:44:58.975Z,36.13
2019-04-01T11:47:02.909Z,29.33
2019-04-01T11:49:06.931Z,33.97
2019-04-01T11:51:11.019Z,32.80
2019-04-01T11:53:14.997Z,32.93
2019-04-01T11:55:18.961Z,40.80
2019-04-01T11:57:22.915Z,38.93
2019-04-01T11:59:26.871Z,36.50
2019-04-01T12:01:30.763Z,30.23
2019-04-01T12:03:34.687Z,38.60
2019-04-01T12:05:38.666Z,35.93
2019-04-01T12:07:42.613Z,32.70
2019-04-01T12:09:46.538Z,33.73
2019-04-01T12:11:50.744Z,33.33
2019-04-01T12:13:55.033Z,40.73
2019-04-01T12:15:58.973Z,33.73
2019-04-01T12:18:03.067Z,35.30
2019-04-01T12:20:07.706Z,34.00
2019-04-01T12:22:12.999Z,30.20
2019-04-01T12:24:16.938Z,34.97
2019-04-01T12:26:20.932Z,27.30
2019-04-01T12:28:24.882Z,34.60
2019-04-01T12:30:28.829Z,33.23
2019-04-01T12:32:33.005Z,31.40
2019-04-01T12:34:36.891Z,31.90
2019-04-01T12:36:40.851Z,34.13
2019-04-01T12:38:44.790Z,36.63
2019-04-01T12:40:48.860Z,27.50
2019-04-01T12:42:52.847Z,32.20
2019-04-01T12:44:56.786Z,28.00
2019-04-01T12:47:00.774Z,33.37
2019-04-01T12:49:05.059Z,30.77
2019-04-01T12:51:09.117Z,29.60
2019-04-01T12:53:13.235Z,27.60
2019-04-01T12:55:17.196Z,31.33
2019-04-01T12:57:21.375Z,30.87
2019-04-01T12:59:25.867Z,33.93
2019-04-01T13:01:29.931Z,29.50
2019-04-01T13:03:33.940Z,34.50
2019-04-01T13:05:37.904Z,33.90
2019-04-01T13:07:42.064Z,28.60
2019-04-01T13:09:46.089Z,27.30
2019-04-01T13:11:50.177Z,28.77
2019-04-01T13:13:54.584Z,28.50
2019-04-01T13:15:58.706Z,28.10
2019-04-01T13:18:02.708Z,27.37
2019-04-01T13:20:07.757Z,27.70
2019-04-01T13:22:11.731Z,26.83
2019-04-01T13:24:16.109Z,27.33
2019-04-01T13:26:20.141Z,25.73
2019-04-01T13:28:26.007Z,30.97
2019-04-01T13:30:30.246Z,26.90
2019-04-01T13:32:33.840Z,30.10
2019-04-01T13:34:37.731Z,29.00
2019-04-01T13:36:41.510Z,27.33
2019-04-01T13:38:46.290Z,31.83
2019-04-01T13:40:50.048Z,26.83
2019-04-01T13:42:53.812Z,56.87
2019-04-01T13:44:57.613Z,31.50
2019-04-01T13:47:01.330Z,31.53
2019-04-01T13:49:05.306Z,27.60
2019-04-01T13:51:09.335Z,24.50
2019-04-01T13:53:13.196Z,30.60
2019-04-01T13:55:16.934Z,27.13
2019-04-01T13:57:20.591Z,24.43
2019-04-01T13:59:24.339Z,24.07
2019-04-01T14:01:28.162Z,25.03
2019-04-01T14:03:31.936Z,27.20
2019-04-01T14:05:35.627Z,22.97
2019-04-01T14:07:39.473Z,28.27
2019-04-01T14:09:43.267Z,25.20
2019-04-01T14:11:47.016Z,26.43
2019-04-01T14:13:51.063Z,25.30
2019-04-01T14:15:54.821Z,24.03
2019-04-01T14:17:59.680Z,24.30
2019-04-01T14:20:03.417Z,24.40
2019-04-01T14:22:17.200Z,26.03
2019-04-01T14:24:30.750Z,23.93
2019-04-01T14:26:34.531Z,23.80
2019-04-01T14:28:38.537Z,26.37
2019-04-01T14:30:42.401Z,24.33
2019-04-01T14:32:46.102Z,24.43
2019-04-01T14:34:50.534Z,24.27
2019-04-01T14:36:54.483Z,22.43
2019-04-01T14:38:58.405Z,25.17
2019-04-01T14:41:01.971Z,28.17
2019-04-01T14:43:05.786Z,22.77
2019-04-01T14:45:11.590Z,20.33
2019-04-01T14:47:15.217Z,27.50
2019-04-01T14:49:19.046Z,26.33
2019-04-01T14:51:22.816Z,26.40
2019-04-01T14:53:26.555Z,22.03
2019-04-01T14:55:31.119Z,24.83
2019-04-01T14:57:35.251Z,23.93
2019-04-01T14:59:39.155Z,24.17
2019-04-01T15:01:43.098Z,27.17
2019-04-01T15:03:46.871Z,26.17
2019-04-01T15:05:50.675Z,35.07
2019-04-01T15:07:54.467Z,25.93
2019-04-01T15:09:58.220Z,24.60
2019-04-01T15:12:20.820Z,28.93
2019-04-01T15:14:24.588Z,28.43
2019-04-01T15:16:34.637Z,24.47
2019-04-01T15:18:38.354Z,22.77
2019-04-01T15:20:42.875Z,22.70
2019-04-01T15:22:47.705Z,21.87
2019-04-01T15:24:51.411Z,22.47
2019-04-01T15:26:55.648Z,23.57
2019-04-01T15:29:00.265Z,25.90
2019-04-01T15:31:04.403Z,22.90
2019-04-01T15:33:08.156Z,27.47
2019-04-01T15:35:14.313Z,20.13
2019-04-01T15:37:18.022Z,24.47
2019-04-01T15:39:21.978Z,21.60
2019-04-01T15:41:26.856Z,21.83
2019-04-01T15:43:30.774Z,18.70
2019-04-01T15:45:35.453Z,23.07
2019-04-01T15:47:39.511Z,24.80
2019-04-01T15:49:43.119Z,23.23
2019-04-01T15:51:46.803Z,25.63
2019-04-01T15:53:51.446Z,23.27
2019-04-01T15:55:56.741Z,25.10
2019-04-01T15:58:00.447Z,23.60
2019-04-01T16:00:05.683Z,31.70
2019-04-01T16:02:09.919Z,26.87
2019-04-01T16:04:16.301Z,27.23
2019-04-01T16:06:19.074Z,22.43
2019-04-01T16:08:23.162Z,26.30
2019-04-01T16:10:29.341Z,22.93
2019-04-01T16:12:32.394Z,25.83
2019-04-01T16:14:35.937Z,24.93
2019-04-01T16:16:39.671Z,22.23
2019-04-01T16:18:43.405Z,23.70
2019-04-01T16:20:47.717Z,26.30
2019-04-01T16:22:51.821Z,24.17
2019-04-01T16:24:55.622Z,25.27
2019-04-01T16:27:13.522Z,30.13
2019-04-01T16:29:34.903Z,22.67
2019-04-01T16:31:34.392Z,22.60
2019-04-01T16:33:38.045Z,24.93
2019-04-01T16:35:41.778Z,21.20
2019-04-01T16:37:45.471Z,23.93
2019-04-01T16:39:49.442Z,25.50
2019-04-01T16:41:53.255Z,27.30
2019-04-01T16:43:56.996Z,27.03
2019-04-01T16:46:00.802Z,25.17
2019-04-01T16:48:04.569Z,26.47
2019-04-01T16:50:09.836Z,23.40
2019-04-01T16:52:15.395Z,30.30
2019-04-01T16:54:18.970Z,31.53
2019-04-01T16:56:23.106Z,28.30
2019-04-01T16:58:26.687Z,28.73
2019-04-01T17:00:30.365Z,27.50
2019-04-01T17:02:34.079Z,32.17
2019-04-01T17:04:37.804Z,30.13
2019-04-01T17:06:41.571Z,23.20
2019-04-01T17:08:45.253Z,27.67
2019-04-01T17:10:49.091Z,26.17
2019-04-01T17:12:52.869Z,24.60
2019-04-01T17:14:56.542Z,28.13
2019-04-01T17:17:00.315Z,25.90
2019-04-01T17:19:04.094Z,25.53
2019-04-01T17:21:07.773Z,25.70
2019-04-01T17:23:11.491Z,25.10
2019-04-01T17:25:15.239Z,33.00
2019-04-01T17:27:19.007Z,27.03
2019-04-01T17:29:22.774Z,30.87
2019-04-01T17:31:26.472Z,33.63
2019-04-01T17:33:30.256Z,28.13
2019-04-01T17:35:33.901Z,31.50
2019-04-01T17:37:38.109Z,33.70
2019-04-01T17:39:42.100Z,26.93
2019-04-01T17:41:46.406Z,23.50
2019-04-01T17:43:50.832Z,28.10
2019-04-01T17:45:55.510Z,24.87
2019-04-01T17:48:00.682Z,29.70
2019-04-01T17:50:06.705Z,30.70
2019-04-01T17:52:10.441Z,41.83
2019-04-01T17:54:14.331Z,44.23
2019-04-01T17:56:18.407Z,32.23
2019-04-01T17:58:22.233Z,36.50
2019-04-01T18:00:27.736Z,38.03
2019-04-01T18:02:31.505Z,43.93
2019-04-01T18:04:35.182Z,35.57
2019-04-01T18:06:39.022Z,32.63
2019-04-01T18:08:42.881Z,39.73
2019-04-01T18:10:48.926Z,42.63
2019-04-01T18:12:52.932Z,36.93
2019-04-01T18:14:56.740Z,32.93
2019-04-01T18:17:00.360Z,29.60
2019-04-01T18:19:04.272Z,29.40
2019-04-01T18:21:07.877Z,43.90
2019-04-01T18:23:12.127Z,34.03
2019-04-01T18:25:16.086Z,29.57
2019-04-01T18:27:19.924Z,37.67
2019-04-01T18:29:23.757Z,36.53
2019-04-01T18:31:27.677Z,37.50
2019-04-01T18:33:32.099Z,36.77
2019-04-01T18:35:35.724Z,36.27
2019-04-01T18:37:39.512Z,39.03
2019-04-01T18:39:48.316Z,30.80
2019-04-01T18:41:48.548Z,32.03
2019-04-01T18:43:52.396Z,34.50
2019-04-01T18:45:56.059Z,35.27
2019-04-01T18:47:59.757Z,32.00
2019-04-01T18:50:04.200Z,32.17
2019-04-01T18:52:09.098Z,38.87
2019-04-01T18:54:13.320Z,32.23
2019-04-01T18:56:18.093Z,30.83
2019-04-01T18:58:21.865Z,29.40
2019-04-01T19:00:25.690Z,30.87
2019-04-01T19:02:29.440Z,32.93
2019-04-01T19:04:34.219Z,30.87
2019-04-01T19:06:38.263Z,36.83
2019-04-01T19:08:42.035Z,30.30
2019-04-01T19:10:45.705Z,25.80
2019-04-01T19:12:49.369Z,28.43
2019-04-01T19:14:53.143Z,30.90
2019-04-01T19:16:56.803Z,26.27
2019-04-01T19:19:00.511Z,25.70
2019-04-01T19:21:05.044Z,25.33
2019-04-01T19:23:09.389Z,29.73
2019-04-01T19:25:13.214Z,24.47
2019-04-01T19:27:17.089Z,26.77
2019-04-01T19:29:20.952Z,26.47
2019-04-01T19:31:24.867Z,28.97
2019-04-01T19:33:28.777Z,27.47
2019-04-01T19:35:33.108Z,30.43
2019-04-01T19:37:37.082Z,27.27
2019-04-01T19:39:40.880Z,26.53
2019-04-01T19:41:44.671Z,25.77
2019-04-01T19:43:51.033Z,23.40
2019-04-01T19:45:53.887Z,20.80
2019-04-01T19:47:57.922Z,27.70
2019-04-01T19:50:02.583Z,25.50
2019-04-01T19:52:09.757Z,24.53
2019-04-01T19:54:13.006Z,23.73
2019-04-01T19:56:16.998Z,27.63
2019-04-01T19:58:22.211Z,21.43
2019-04-01T20:02:37.938Z,29.00
2019-04-01T20:04:41.697Z,29.50
2019-04-01T20:06:47.187Z,30.90
2019-04-01T20:08:52.535Z,25.27
2019-04-01T20:10:57.652Z,24.50
2019-04-01T20:13:04.104Z,26.70
2019-04-01T20:15:12.178Z,29.50
2019-04-01T20:17:16.383Z,27.97
2019-04-01T20:19:20.299Z,31.70
2019-04-01T20:21:24.323Z,41.83
2019-04-01T20:23:28.224Z,45.30
2019-04-01T20:25:32.340Z,46.10
2019-04-01T20:27:36.097Z,40.10
2019-04-01T20:29:40.593Z,37.90
2019-04-01T20:31:46.737Z,36.07
2019-04-01T20:33:51.438Z,30.50
2019-04-01T20:35:55.147Z,28.23
2019-04-01T20:37:59.078Z,37.50
2019-04-01T20:40:03.552Z,34.90
2019-04-01T20:42:08.165Z,38.70
2019-04-01T20:44:12.424Z,38.77
2019-04-01T20:46:16.651Z,33.30
2019-04-01T20:48:20.697Z,32.10
2019-04-01T20:50:25.074Z,31.60
2019-04-01T20:52:29.129Z,33.73
2019-04-01T20:54:33.015Z,27.00
2019-04-01T20:56:36.701Z,31.17
2019-04-01T20:58:41.234Z,28.17
2019-04-01T21:00:46.380Z,28.87
2019-04-01T21:02:50.471Z,35.50
2019-04-01T21:04:55.141Z,33.33
2019-04-01T21:07:00.226Z,32.30
2019-04-01T21:09:07.744Z,36.13
2019-04-01T21:11:12.123Z,27.73
2019-04-01T21:13:16.230Z,27.93
2019-04-01T21:15:20.450Z,26.60
2019-04-01T21:17:24.441Z,20.47
2019-04-01T21:19:28.144Z,24.97
2019-04-01T21:21:32.264Z,27.97
2019-04-01T21:23:36.504Z,36.97
2019-04-01T21:25:40.589Z,42.10
2019-04-01T21:27:44.674Z,40.27
2019-04-01T21:29:48.684Z,37.37
2019-04-01T21:31:52.546Z,34.13
2019-04-01T21:33:56.483Z,29.87
2019-04-01T21:36:00.251Z,35.03
2019-04-01T21:38:04.579Z,29.20
2019-04-01T21:40:08.834Z,28.20
2019-04-01T21:42:12.718Z,32.97
2019-04-01T21:44:17.233Z,25.60
2019-04-01T21:46:22.379Z,26.10
2019-04-01T21:48:26.535Z,26.50
2019-04-01T21:50:30.246Z,24.67
2019-04-01T21:52:34.378Z,23.70
2019-04-01T21:54:38.397Z,23.80
2019-04-01T21:56:42.502Z,20.47
2019-04-01T21:58:46.599Z,24.00
2019-04-01T22:00:56.035Z,23.47
2019-04-01T22:02:59.891Z,23.37
2019-04-01T22:05:04.255Z,26.83
2019-04-01T22:07:09.895Z,24.47
2019-04-01T22:09:13.756Z,25.10
2019-04-01T22:11:17.576Z,24.43
2019-04-01T22:13:21.281Z,24.57
2019-04-01T22:15:24.970Z,27.43
2019-04-01T22:17:28.853Z,23.93
2019-04-01T22:19:32.690Z,23.50
2019-04-01T22:21:37.188Z,27.20
2019-04-01T22:23:40.975Z,21.80
2019-04-01T22:25:44.643Z,28.17
2019-04-01T22:27:48.419Z,21.97
2019-04-01T22:29:52.175Z,25.47
2019-04-01T22:31:55.929Z,25.40
2019-04-01T22:33:59.803Z,23.83
2019-04-01T22:36:04.803Z,25.47
2019-04-01T22:38:08.512Z,23.03
2019-04-01T22:40:12.434Z,22.00
2019-04-01T22:42:16.191Z,20.77
2019-04-01T22:44:19.952Z,21.03
2019-04-01T22:46:23.903Z,23.80
2019-04-01T22:48:27.592Z,24.00
2019-04-01T22:50:31.196Z,25.73
2019-04-01T22:52:35.374Z,27.80
2019-04-01T22:54:39.519Z,22.63
2019-04-01T22:56:43.975Z,20.17
2019-04-01T22:58:48.294Z,23.50
2019-04-01T23:00:52.590Z,22.50
2019-04-01T23:02:56.336Z,20.47
2019-04-01T23:05:00.039Z,27.63
2019-04-01T23:07:04.218Z,19.70
2019-04-01T23:09:08.956Z,19.93
2019-04-01T23:11:12.559Z,27.60
2019-04-01T23:13:17.611Z,20.70
2019-04-01T23:15:21.336Z,19.67
2019-04-01T23:17:24.928Z,24.23
2019-04-01T23:19:28.712Z,22.90
2019-04-01T23:21:32.364Z,22.77
2019-04-01T23:23:36.010Z,19.70
2019-04-01T23:25:39.664Z,23.83
2019-04-01T23:27:43.430Z,20.60
2019-04-01T23:29:47.180Z,20.57
2019-04-01T23:31:50.848Z,20.30
2019-04-01T23:33:54.689Z,19.47
2019-04-01T23:35:58.363Z,18.17
2019-04-01T23:38:02.033Z,20.10
2019-04-01T23:40:07.427Z,29.43
2019-04-01T23:42:11.103Z,19.37
2019-04-01T23:44:14.830Z,18.97
2019-04-01T23:46:19.130Z,22.83
2019-04-01T23:48:24.055Z,23.67
2019-04-01T23:50:27.679Z,21.40
2019-04-01T23:52:31.353Z,21.60
2019-04-01T23:54:35.118Z,19.93
2019-04-01T23:56:38.765Z,23.33
2019-04-01T23:58:42.372Z,22.57
